sensor_id;sensor_type;location;lat;lon;timestamp;temperature;humidity
11772;DHT22;12556;55.748;13.194;2023-02-04T00:02:24;-0.30;99.90
11772;DHT22;12556;55.748;13.194;2023-02-04T00:04:50;-0.30;99.90
11772;DHT22;12556;55.748;13.194;2023-02-04T00:07:17;-0.30;99.90
11772;DHT22;12556;55.748;13.194;2023-02-04T00:09:44;-0.30;99.90
11772;DHT22;12556;55.748;13.194;2023-02-04T00:12:13;-0.30;99.90
11772;DHT22;12556;55.748;13.194;2023-02-04T00:14:40;-0.30;99.90
11772;DHT22;12556;55.748;13.194;2023-02-04T00:17:07;-0.40;99.90
11772;DHT22;12556;55.748;13.194;2023-02-04T00:19:37;-0.40;99.90
11772;DHT22;12556;55.748;13.194;2023-02-04T00:22:04;-0.40;99.90
11772;DHT22;12556;55.748;13.194;2023-02-04T00:24:32;-0.40;99.90
11772;DHT22;12556;55.748;13.194;2023-02-04T00:27:00;-0.50;99.90
11772;DHT22;12556;55.748;13.194;2023-02-04T00:29:29;-0.50;99.90
11772;DHT22;12556;55.748;13.194;2023-02-04T00:31:56;-0.50;99.90
11772;DHT22;12556;55.748;13.194;2023-02-04T00:34:23;-0.50;99.90
11772;DHT22;12556;55.748;13.194;2023-02-04T00:36:50;-0.50;99.90
11772;DHT22;12556;55.748;13.194;2023-02-04T00:39:16;-0.60;99.90
11772;DHT22;12556;55.748;13.194;2023-02-04T00:41:43;-0.60;99.90
11772;DHT22;12556;55.748;13.194;2023-02-04T00:44:10;-0.60;99.90
11772;DHT22;12556;55.748;13.194;2023-02-04T00:46:40;-0.60;99.90
11772;DHT22;12556;55.748;13.194;2023-02-04T00:49:07;-0.60;99.90
11772;DHT22;12556;55.748;13.194;2023-02-04T00:51:36;-0.60;99.90
11772;DHT22;12556;55.748;13.194;2023-02-04T00:54:04;-0.70;99.90
11772;DHT22;12556;55.748;13.194;2023-02-04T00:56:31;-0.60;99.90
11772;DHT22;12556;55.748;13.194;2023-02-04T00:58:58;-0.60;99.90
11772;DHT22;12556;55.748;13.194;2023-02-04T01:01:25;-0.60;99.90
11772;DHT22;12556;55.748;13.194;2023-02-04T01:03:53;-0.70;99.90
11772;DHT22;12556;55.748;13.194;2023-02-04T01:06:20;-0.70;99.90
11772;DHT22;12556;55.748;13.194;2023-02-04T01:08:47;-0.70;99.90
11772;DHT22;12556;55.748;13.194;2023-02-04T01:11:13;-0.70;99.90
11772;DHT22;12556;55.748;13.194;2023-02-04T01:13:40;-0.70;99.90
11772;DHT22;12556;55.748;13.194;2023-02-04T01:16:07;-0.70;99.90
11772;DHT22;12556;55.748;13.194;2023-02-04T01:18:35;-0.70;99.90
11772;DHT22;12556;55.748;13.194;2023-02-04T01:21:03;-0.80;99.90
11772;DHT22;12556;55.748;13.194;2023-02-04T01:23:30;-0.70;99.90
11772;DHT22;12556;55.748;13.194;2023-02-04T01:25:57;-0.70;99.90
11772;DHT22;12556;55.748;13.194;2023-02-04T01:28:24;-0.80;99.90
11772;DHT22;12556;55.748;13.194;2023-02-04T01:30:51;-0.80;99.90
11772;DHT22;12556;55.748;13.194;2023-02-04T01:33:18;-0.80;99.90
11772;DHT22;12556;55.748;13.194;2023-02-04T01:35:45;-0.80;99.90
11772;DHT22;12556;55.748;13.194;2023-02-04T01:38:13;-0.80;99.90
11772;DHT22;12556;55.748;13.194;2023-02-04T01:40:41;-0.80;99.90
11772;DHT22;12556;55.748;13.194;2023-02-04T01:43:08;-0.90;99.90
11772;DHT22;12556;55.748;13.194;2023-02-04T01:45:35;-0.90;99.90
11772;DHT22;12556;55.748;13.194;2023-02-04T01:48:03;-0.90;99.90
11772;DHT22;12556;55.748;13.194;2023-02-04T01:50:31;-0.90;99.90
11772;DHT22;12556;55.748;13.194;2023-02-04T01:52:59;-1.00;99.90
11772;DHT22;12556;55.748;13.194;2023-02-04T01:55:30;-1.00;99.90
11772;DHT22;12556;55.748;13.194;2023-02-04T01:57:57;-1.00;99.90
11772;DHT22;12556;55.748;13.194;2023-02-04T02:00:27;-1.00;99.90
11772;DHT22;12556;55.748;13.194;2023-02-04T02:02:54;-1.10;99.90
11772;DHT22;12556;55.748;13.194;2023-02-04T02:05:23;-1.10;99.90
11772;DHT22;12556;55.748;13.194;2023-02-04T02:07:53;-1.10;99.90
11772;DHT22;12556;55.748;13.194;2023-02-04T02:10:20;-1.10;99.90
11772;DHT22;12556;55.748;13.194;2023-02-04T02:12:49;-1.10;99.90
11772;DHT22;12556;55.748;13.194;2023-02-04T02:15:17;-1.10;99.90
11772;DHT22;12556;55.748;13.194;2023-02-04T02:17:44;-1.20;99.90
11772;DHT22;12556;55.748;13.194;2023-02-04T02:20:13;-1.20;99.90
11772;DHT22;12556;55.748;13.194;2023-02-04T02:22:47;-1.20;99.90
11772;DHT22;12556;55.748;13.194;2023-02-04T02:25:17;-1.20;99.90
11772;DHT22;12556;55.748;13.194;2023-02-04T02:27:44;-1.30;99.90
11772;DHT22;12556;55.748;13.194;2023-02-04T02:30:13;-1.30;99.90
11772;DHT22;12556;55.748;13.194;2023-02-04T02:32:42;-1.30;99.90
11772;DHT22;12556;55.748;13.194;2023-02-04T02:35:10;-1.30;99.90
11772;DHT22;12556;55.748;13.194;2023-02-04T02:37:37;-1.40;99.90
11772;DHT22;12556;55.748;13.194;2023-02-04T02:40:04;-1.40;99.90
11772;DHT22;12556;55.748;13.194;2023-02-04T02:42:33;-1.40;99.90
11772;DHT22;12556;55.748;13.194;2023-02-04T02:45:02;-1.40;99.90
11772;DHT22;12556;55.748;13.194;2023-02-04T02:47:32;-1.40;99.90
11772;DHT22;12556;55.748;13.194;2023-02-04T02:49:58;-1.50;99.90
11772;DHT22;12556;55.748;13.194;2023-02-04T02:52:25;-1.60;99.90
11772;DHT22;12556;55.748;13.194;2023-02-04T02:54:52;-1.60;99.90
11772;DHT22;12556;55.748;13.194;2023-02-04T02:57:20;-1.60;99.90
11772;DHT22;12556;55.748;13.194;2023-02-04T02:59:49;-1.60;99.90
11772;DHT22;12556;55.748;13.194;2023-02-04T03:02:19;-1.50;99.90
11772;DHT22;12556;55.748;13.194;2023-02-04T03:04:50;-1.60;99.90
11772;DHT22;12556;55.748;13.194;2023-02-04T03:07:21;-1.60;99.90
11772;DHT22;12556;55.748;13.194;2023-02-04T03:09:49;-1.60;99.90
11772;DHT22;12556;55.748;13.194;2023-02-04T03:12:18;-1.60;99.90
11772;DHT22;12556;55.748;13.194;2023-02-04T03:14:45;-1.60;99.90
11772;DHT22;12556;55.748;13.194;2023-02-04T03:17:13;-1.60;99.90
11772;DHT22;12556;55.748;13.194;2023-02-04T03:19:40;-1.60;99.90
11772;DHT22;12556;55.748;13.194;2023-02-04T03:22:08;-1.60;99.90
11772;DHT22;12556;55.748;13.194;2023-02-04T03:24:35;-1.60;99.90
11772;DHT22;12556;55.748;13.194;2023-02-04T03:27:03;-1.60;99.90
11772;DHT22;12556;55.748;13.194;2023-02-04T03:29:30;-1.60;99.90
11772;DHT22;12556;55.748;13.194;2023-02-04T03:31:58;-1.60;99.90
11772;DHT22;12556;55.748;13.194;2023-02-04T03:34:26;-1.60;99.90
11772;DHT22;12556;55.748;13.194;2023-02-04T03:36:53;-1.60;99.90
11772;DHT22;12556;55.748;13.194;2023-02-04T03:39:20;-1.60;99.90
11772;DHT22;12556;55.748;13.194;2023-02-04T03:41:47;-1.60;99.90
11772;DHT22;12556;55.748;13.194;2023-02-04T03:44:14;-1.60;99.90
11772;DHT22;12556;55.748;13.194;2023-02-04T03:46:41;-1.60;99.90
11772;DHT22;12556;55.748;13.194;2023-02-04T03:49:07;-1.70;99.90
11772;DHT22;12556;55.748;13.194;2023-02-04T03:51:36;-1.70;99.90
11772;DHT22;12556;55.748;13.194;2023-02-04T03:54:03;-1.70;99.90
11772;DHT22;12556;55.748;13.194;2023-02-04T03:56:29;-1.70;99.90
11772;DHT22;12556;55.748;13.194;2023-02-04T03:58:56;-1.70;99.90
11772;DHT22;12556;55.748;13.194;2023-02-04T04:01:23;-1.70;99.90
11772;DHT22;12556;55.748;13.194;2023-02-04T04:03:50;-1.70;99.90
11772;DHT22;12556;55.748;13.194;2023-02-04T04:06:17;-1.80;99.90
11772;DHT22;12556;55.748;13.194;2023-02-04T04:08:45;-1.80;99.90
11772;DHT22;12556;55.748;13.194;2023-02-04T04:11:12;-1.80;99.90
11772;DHT22;12556;55.748;13.194;2023-02-04T04:13:39;-1.80;99.90
11772;DHT22;12556;55.748;13.194;2023-02-04T04:16:06;-1.80;99.90
11772;DHT22;12556;55.748;13.194;2023-02-04T04:18:34;-1.90;99.90
11772;DHT22;12556;55.748;13.194;2023-02-04T04:21:01;-1.90;99.90
11772;DHT22;12556;55.748;13.194;2023-02-04T04:23:28;-1.90;99.90
11772;DHT22;12556;55.748;13.194;2023-02-04T04:25:56;-1.90;99.90
11772;DHT22;12556;55.748;13.194;2023-02-04T04:28:23;-1.90;99.90
11772;DHT22;12556;55.748;13.194;2023-02-04T04:30:50;-1.90;99.90
11772;DHT22;12556;55.748;13.194;2023-02-04T04:33:17;-2.00;99.90
11772;DHT22;12556;55.748;13.194;2023-02-04T04:35:44;-2.00;99.90
11772;DHT22;12556;55.748;13.194;2023-02-04T04:38:10;-2.00;99.90
11772;DHT22;12556;55.748;13.194;2023-02-04T04:40:37;-2.00;99.90
11772;DHT22;12556;55.748;13.194;2023-02-04T04:43:06;-2.00;99.90
11772;DHT22;12556;55.748;13.194;2023-02-04T04:45:32;-2.00;99.90
11772;DHT22;12556;55.748;13.194;2023-02-04T04:47:59;-2.10;99.90
11772;DHT22;12556;55.748;13.194;2023-02-04T04:50:26;-2.10;99.90
11772;DHT22;12556;55.748;13.194;2023-02-04T04:52:53;-2.10;99.90
11772;DHT22;12556;55.748;13.194;2023-02-04T04:55:20;-2.10;99.90
11772;DHT22;12556;55.748;13.194;2023-02-04T04:57:47;-2.10;99.90
11772;DHT22;12556;55.748;13.194;2023-02-04T05:00:17;-2.10;99.90
11772;DHT22;12556;55.748;13.194;2023-02-04T05:02:44;-2.20;99.90
11772;DHT22;12556;55.748;13.194;2023-02-04T05:05:12;-2.10;99.90
11772;DHT22;12556;55.748;13.194;2023-02-04T05:07:39;-2.20;99.90
11772;DHT22;12556;55.748;13.194;2023-02-04T05:10:06;-2.10;99.90
11772;DHT22;12556;55.748;13.194;2023-02-04T05:12:33;-2.20;99.90
11772;DHT22;12556;55.748;13.194;2023-02-04T05:15:00;-2.20;99.90
11772;DHT22;12556;55.748;13.194;2023-02-04T05:17:29;-2.20;99.90
11772;DHT22;12556;55.748;13.194;2023-02-04T05:19:55;-2.20;99.90
11772;DHT22;12556;55.748;13.194;2023-02-04T05:22:22;-2.20;99.90
11772;DHT22;12556;55.748;13.194;2023-02-04T05:24:49;-2.20;99.90
11772;DHT22;12556;55.748;13.194;2023-02-04T05:27:16;-2.20;99.90
11772;DHT22;12556;55.748;13.194;2023-02-04T05:29:43;-1.30;99.90
11772;DHT22;12556;55.748;13.194;2023-02-04T05:32:10;-2.20;99.90
11772;DHT22;12556;55.748;13.194;2023-02-04T05:34:39;-2.20;99.90
11772;DHT22;12556;55.748;13.194;2023-02-04T05:37:06;-2.30;99.90
11772;DHT22;12556;55.748;13.194;2023-02-04T05:39:32;-2.30;99.90
11772;DHT22;12556;55.748;13.194;2023-02-04T05:41:59;-2.30;99.90
11772;DHT22;12556;55.748;13.194;2023-02-04T05:44:27;-2.30;99.90
11772;DHT22;12556;55.748;13.194;2023-02-04T05:46:54;-2.30;99.90
11772;DHT22;12556;55.748;13.194;2023-02-04T05:49:21;-2.30;99.90
11772;DHT22;12556;55.748;13.194;2023-02-04T05:51:50;-2.30;99.90
11772;DHT22;12556;55.748;13.194;2023-02-04T05:54:17;-2.40;99.90
11772;DHT22;12556;55.748;13.194;2023-02-04T05:56:45;-2.40;99.90
11772;DHT22;12556;55.748;13.194;2023-02-04T05:59:12;-2.40;99.90
11772;DHT22;12556;55.748;13.194;2023-02-04T06:01:39;-2.40;99.90
11772;DHT22;12556;55.748;13.194;2023-02-04T06:04:06;-2.40;99.90
11772;DHT22;12556;55.748;13.194;2023-02-04T06:06:33;-2.50;99.90
11772;DHT22;12556;55.748;13.194;2023-02-04T06:09:01;-2.50;99.90
11772;DHT22;12556;55.748;13.194;2023-02-04T06:11:28;-2.50;99.90
11772;DHT22;12556;55.748;13.194;2023-02-04T06:13:55;-2.60;99.90
11772;DHT22;12556;55.748;13.194;2023-02-04T06:16:22;-2.60;99.90
11772;DHT22;12556;55.748;13.194;2023-02-04T06:18:49;-2.60;99.90
11772;DHT22;12556;55.748;13.194;2023-02-04T06:21:16;-2.60;99.90
11772;DHT22;12556;55.748;13.194;2023-02-04T06:23:43;-2.70;99.90
11772;DHT22;12556;55.748;13.194;2023-02-04T06:26:12;-2.70;99.90
11772;DHT22;12556;55.748;13.194;2023-02-04T06:28:38;-2.70;99.90
11772;DHT22;12556;55.748;13.194;2023-02-04T06:31:05;-2.70;99.90
11772;DHT22;12556;55.748;13.194;2023-02-04T06:33:33;-2.80;99.90
11772;DHT22;12556;55.748;13.194;2023-02-04T06:36:00;-2.80;99.90
11772;DHT22;12556;55.748;13.194;2023-02-04T06:38:27;-2.80;99.90
11772;DHT22;12556;55.748;13.194;2023-02-04T06:40:54;-2.80;99.90
11772;DHT22;12556;55.748;13.194;2023-02-04T06:43:22;-2.80;99.90
11772;DHT22;12556;55.748;13.194;2023-02-04T06:45:50;-2.90;99.90
11772;DHT22;12556;55.748;13.194;2023-02-04T06:48:17;-2.90;99.90
11772;DHT22;12556;55.748;13.194;2023-02-04T06:50:44;-2.90;99.90
11772;DHT22;12556;55.748;13.194;2023-02-04T06:53:11;-3.00;99.90
11772;DHT22;12556;55.748;13.194;2023-02-04T06:55:37;-3.00;99.90
11772;DHT22;12556;55.748;13.194;2023-02-04T06:58:05;-3.00;99.90
11772;DHT22;12556;55.748;13.194;2023-02-04T07:00:33;-3.00;99.90
11772;DHT22;12556;55.748;13.194;2023-02-04T07:03:00;-3.00;99.90
11772;DHT22;12556;55.748;13.194;2023-02-04T07:05:26;-3.10;99.90
11772;DHT22;12556;55.748;13.194;2023-02-04T07:07:53;-3.10;99.90
11772;DHT22;12556;55.748;13.194;2023-02-04T07:10:20;-3.10;99.90
11772;DHT22;12556;55.748;13.194;2023-02-04T07:12:47;-3.10;99.90
11772;DHT22;12556;55.748;13.194;2023-02-04T07:15:14;-3.10;99.90
11772;DHT22;12556;55.748;13.194;2023-02-04T07:17:42;-3.10;99.90
11772;DHT22;12556;55.748;13.194;2023-02-04T07:20:10;-3.20;99.90
11772;DHT22;12556;55.748;13.194;2023-02-04T07:22:37;-3.20;99.90
11772;DHT22;12556;55.748;13.194;2023-02-04T07:25:05;-3.20;99.90
11772;DHT22;12556;55.748;13.194;2023-02-04T07:27:32;-3.20;99.90
11772;DHT22;12556;55.748;13.194;2023-02-04T07:29:59;-3.20;99.90
11772;DHT22;12556;55.748;13.194;2023-02-04T07:32:26;-3.20;99.90
11772;DHT22;12556;55.748;13.194;2023-02-04T07:34:58;-3.20;99.90
11772;DHT22;12556;55.748;13.194;2023-02-04T07:37:25;-3.30;99.90
11772;DHT22;12556;55.748;13.194;2023-02-04T07:39:52;-3.30;99.90
11772;DHT22;12556;55.748;13.194;2023-02-04T07:42:19;-3.30;99.90
11772;DHT22;12556;55.748;13.194;2023-02-04T07:44:46;-3.30;99.90
11772;DHT22;12556;55.748;13.194;2023-02-04T07:47:13;-3.30;99.90
11772;DHT22;12556;55.748;13.194;2023-02-04T07:49:40;-3.30;99.90
11772;DHT22;12556;55.748;13.194;2023-02-04T07:52:08;-3.20;99.90
11772;DHT22;12556;55.748;13.194;2023-02-04T07:54:35;-3.30;99.90
11772;DHT22;12556;55.748;13.194;2023-02-04T07:57:02;-3.20;99.90
11772;DHT22;12556;55.748;13.194;2023-02-04T07:59:29;-3.20;99.90
11772;DHT22;12556;55.748;13.194;2023-02-04T08:01:56;-3.20;99.90
11772;DHT22;12556;55.748;13.194;2023-02-04T08:04:22;-3.20;99.90
11772;DHT22;12556;55.748;13.194;2023-02-04T08:06:49;-3.20;99.90
11772;DHT22;12556;55.748;13.194;2023-02-04T08:09:17;-3.20;99.90
11772;DHT22;12556;55.748;13.194;2023-02-04T08:11:44;-3.10;99.90
11772;DHT22;12556;55.748;13.194;2023-02-04T08:14:11;-3.10;99.90
11772;DHT22;12556;55.748;13.194;2023-02-04T08:16:38;-3.10;99.90
11772;DHT22;12556;55.748;13.194;2023-02-04T08:19:05;-3.10;99.90
11772;DHT22;12556;55.748;13.194;2023-02-04T08:21:32;-3.00;99.90
11772;DHT22;12556;55.748;13.194;2023-02-04T08:23:59;-3.00;99.90
11772;DHT22;12556;55.748;13.194;2023-02-04T08:26:28;-3.00;99.90
11772;DHT22;12556;55.748;13.194;2023-02-04T08:28:54;-3.00;99.90
11772;DHT22;12556;55.748;13.194;2023-02-04T08:31:21;-3.00;99.90
11772;DHT22;12556;55.748;13.194;2023-02-04T08:33:48;-2.90;99.90
11772;DHT22;12556;55.748;13.194;2023-02-04T08:36:15;-2.90;99.90
11772;DHT22;12556;55.748;13.194;2023-02-04T08:38:42;-2.90;99.90
11772;DHT22;12556;55.748;13.194;2023-02-04T08:41:09;-2.80;99.90
11772;DHT22;12556;55.748;13.194;2023-02-04T08:43:37;-2.80;99.90
11772;DHT22;12556;55.748;13.194;2023-02-04T08:46:04;-2.80;99.90
11772;DHT22;12556;55.748;13.194;2023-02-04T08:48:31;-2.80;99.90
11772;DHT22;12556;55.748;13.194;2023-02-04T08:50:58;-2.70;99.90
11772;DHT22;12556;55.748;13.194;2023-02-04T08:53:25;-2.70;99.90
11772;DHT22;12556;55.748;13.194;2023-02-04T08:55:52;-2.70;99.90
11772;DHT22;12556;55.748;13.194;2023-02-04T08:58:19;-2.60;99.90
11772;DHT22;12556;55.748;13.194;2023-02-04T09:00:47;-2.60;99.90
11772;DHT22;12556;55.748;13.194;2023-02-04T09:03:14;-2.60;99.90
11772;DHT22;12556;55.748;13.194;2023-02-04T09:05:41;-2.60;99.90
11772;DHT22;12556;55.748;13.194;2023-02-04T09:08:07;-2.60;99.90
11772;DHT22;12556;55.748;13.194;2023-02-04T09:10:34;-2.50;99.90
11772;DHT22;12556;55.748;13.194;2023-02-04T09:13:01;-2.50;99.90
11772;DHT22;12556;55.748;13.194;2023-02-04T09:15:28;-2.50;99.90
11772;DHT22;12556;55.748;13.194;2023-02-04T09:17:56;-2.50;99.90
11772;DHT22;12556;55.748;13.194;2023-02-04T09:20:29;-2.50;99.90
11772;DHT22;12556;55.748;13.194;2023-02-04T09:22:56;-2.50;99.90
11772;DHT22;12556;55.748;13.194;2023-02-04T09:25:22;-2.50;99.90
11772;DHT22;12556;55.748;13.194;2023-02-04T09:27:49;-2.50;99.90
11772;DHT22;12556;55.748;13.194;2023-02-04T09:30:16;-2.40;99.90
11772;DHT22;12556;55.748;13.194;2023-02-04T09:32:43;-2.40;99.90
11772;DHT22;12556;55.748;13.194;2023-02-04T09:35:12;-2.30;99.90
11772;DHT22;12556;55.748;13.194;2023-02-04T09:37:38;-2.30;99.90
11772;DHT22;12556;55.748;13.194;2023-02-04T09:40:06;-2.30;99.90
11772;DHT22;12556;55.748;13.194;2023-02-04T09:42:33;-2.30;99.90
11772;DHT22;12556;55.748;13.194;2023-02-04T09:45:00;-2.30;99.90
11772;DHT22;12556;55.748;13.194;2023-02-04T09:47:28;-2.30;99.90
11772;DHT22;12556;55.748;13.194;2023-02-04T09:49:55;-2.20;99.90
11772;DHT22;12556;55.748;13.194;2023-02-04T09:52:24;-2.20;99.90
11772;DHT22;12556;55.748;13.194;2023-02-04T09:54:53;-2.10;99.90
11772;DHT22;12556;55.748;13.194;2023-02-04T09:57:20;-2.00;99.90
11772;DHT22;12556;55.748;13.194;2023-02-04T09:59:46;-2.00;99.90
11772;DHT22;12556;55.748;13.194;2023-02-04T10:02:21;-2.00;99.90
11772;DHT22;12556;55.748;13.194;2023-02-04T10:04:50;-1.90;99.90
11772;DHT22;12556;55.748;13.194;2023-02-04T10:07:20;-1.80;99.90
11772;DHT22;12556;55.748;13.194;2023-02-04T10:09:51;-1.70;99.90
11772;DHT22;12556;55.748;13.194;2023-02-04T10:12:19;-1.60;99.90
11772;DHT22;12556;55.748;13.194;2023-02-04T10:14:46;-1.50;99.90
11772;DHT22;12556;55.748;13.194;2023-02-04T10:17:17;-1.40;99.90
11772;DHT22;12556;55.748;13.194;2023-02-04T10:19:45;-1.40;99.90
11772;DHT22;12556;55.748;13.194;2023-02-04T10:22:16;-1.30;99.90
11772;DHT22;12556;55.748;13.194;2023-02-04T10:24:43;-1.20;99.90
11772;DHT22;12556;55.748;13.194;2023-02-04T10:27:12;-1.10;99.90
11772;DHT22;12556;55.748;13.194;2023-02-04T10:29:42;-1.00;99.90
11772;DHT22;12556;55.748;13.194;2023-02-04T10:32:28;-0.90;99.90
11772;DHT22;12556;55.748;13.194;2023-02-04T10:34:59;-0.80;99.90
11772;DHT22;12556;55.748;13.194;2023-02-04T10:37:26;-0.80;99.90
11772;DHT22;12556;55.748;13.194;2023-02-04T10:39:54;-0.70;99.90
11772;DHT22;12556;55.748;13.194;2023-02-04T10:42:23;-0.70;99.90
11772;DHT22;12556;55.748;13.194;2023-02-04T10:44:51;-0.50;99.90
11772;DHT22;12556;55.748;13.194;2023-02-04T10:47:19;-0.40;99.90
11772;DHT22;12556;55.748;13.194;2023-02-04T10:49:54;-0.20;99.90
11772;DHT22;12556;55.748;13.194;2023-02-04T10:52:23;-0.10;99.90
11772;DHT22;12556;55.748;13.194;2023-02-04T10:54:50;0.10;99.90
11772;DHT22;12556;55.748;13.194;2023-02-04T10:57:18;0.10;99.90
11772;DHT22;12556;55.748;13.194;2023-02-04T10:59:49;0.30;99.90
11772;DHT22;12556;55.748;13.194;2023-02-04T11:02:35;0.40;99.90
11772;DHT22;12556;55.748;13.194;2023-02-04T11:05:05;0.40;99.90
11772;DHT22;12556;55.748;13.194;2023-02-04T11:07:35;0.40;99.90
11772;DHT22;12556;55.748;13.194;2023-02-04T11:10:02;0.40;99.90
11772;DHT22;12556;55.748;13.194;2023-02-04T11:12:41;0.40;99.90
11772;DHT22;12556;55.748;13.194;2023-02-04T11:15:43;0.50;99.90
11772;DHT22;12556;55.748;13.194;2023-02-04T11:18:23;0.50;99.90
11772;DHT22;12556;55.748;13.194;2023-02-04T11:20:52;0.60;99.90
11772;DHT22;12556;55.748;13.194;2023-02-04T11:23:37;0.60;99.90
11772;DHT22;12556;55.748;13.194;2023-02-04T11:26:06;0.70;99.90
11772;DHT22;12556;55.748;13.194;2023-02-04T11:28:48;0.80;99.90
11772;DHT22;12556;55.748;13.194;2023-02-04T11:31:44;0.90;99.90
11772;DHT22;12556;55.748;13.194;2023-02-04T11:34:27;1.30;99.90
11772;DHT22;12556;55.748;13.194;2023-02-04T11:37:03;1.40;99.90
11772;DHT22;12556;55.748;13.194;2023-02-04T11:39:35;1.50;99.90
11772;DHT22;12556;55.748;13.194;2023-02-04T11:42:03;1.50;99.90
11772;DHT22;12556;55.748;13.194;2023-02-04T11:44:31;1.50;99.90
11772;DHT22;12556;55.748;13.194;2023-02-04T11:46:59;1.60;99.90
11772;DHT22;12556;55.748;13.194;2023-02-04T11:49:27;1.80;99.90
11772;DHT22;12556;55.748;13.194;2023-02-04T11:52:03;1.80;99.90
11772;DHT22;12556;55.748;13.194;2023-02-04T11:54:33;1.80;99.90
11772;DHT22;12556;55.748;13.194;2023-02-04T11:57:00;1.80;99.90
11772;DHT22;12556;55.748;13.194;2023-02-04T11:59:27;1.90;99.90
11772;DHT22;12556;55.748;13.194;2023-02-04T12:02:04;2.00;99.90
11772;DHT22;12556;55.748;13.194;2023-02-04T12:04:31;2.20;99.90
11772;DHT22;12556;55.748;13.194;2023-02-04T12:07:00;2.40;99.90
11772;DHT22;12556;55.748;13.194;2023-02-04T12:09:28;2.30;99.90
11772;DHT22;12556;55.748;13.194;2023-02-04T12:11:57;2.40;99.90
11772;DHT22;12556;55.748;13.194;2023-02-04T12:14:28;2.40;99.90
11772;DHT22;12556;55.748;13.194;2023-02-04T12:16:56;2.40;99.90
11772;DHT22;12556;55.748;13.194;2023-02-04T12:19:25;2.50;99.90
11772;DHT22;12556;55.748;13.194;2023-02-04T12:21:52;2.50;99.90
11772;DHT22;12556;55.748;13.194;2023-02-04T12:24:19;2.50;99.90
11772;DHT22;12556;55.748;13.194;2023-02-04T12:26:46;2.50;99.90
11772;DHT22;12556;55.748;13.194;2023-02-04T12:29:13;2.50;99.90
11772;DHT22;12556;55.748;13.194;2023-02-04T12:31:40;2.50;99.90
11772;DHT22;12556;55.748;13.194;2023-02-04T12:34:07;2.50;99.90
11772;DHT22;12556;55.748;13.194;2023-02-04T12:36:35;2.50;99.90
11772;DHT22;12556;55.748;13.194;2023-02-04T12:39:02;2.40;99.90
11772;DHT22;12556;55.748;13.194;2023-02-04T12:41:29;2.20;99.90
11772;DHT22;12556;55.748;13.194;2023-02-04T12:43:56;2.10;99.90
11772;DHT22;12556;55.748;13.194;2023-02-04T12:46:22;2.00;99.90
11772;DHT22;12556;55.748;13.194;2023-02-04T12:48:49;2.00;99.90
11772;DHT22;12556;55.748;13.194;2023-02-04T12:51:16;1.90;99.90
11772;DHT22;12556;55.748;13.194;2023-02-04T12:53:46;1.80;99.90
11772;DHT22;12556;55.748;13.194;2023-02-04T12:56:13;1.70;99.90
11772;DHT22;12556;55.748;13.194;2023-02-04T12:58:40;1.50;99.90
11772;DHT22;12556;55.748;13.194;2023-02-04T13:01:07;1.50;99.90
11772;DHT22;12556;55.748;13.194;2023-02-04T13:03:34;1.40;99.90
11772;DHT22;12556;55.748;13.194;2023-02-04T13:06:01;1.30;99.90
11772;DHT22;12556;55.748;13.194;2023-02-04T13:08:28;1.30;99.90
11772;DHT22;12556;55.748;13.194;2023-02-04T13:10:56;1.20;99.90
11772;DHT22;12556;55.748;13.194;2023-02-04T13:13:23;1.10;99.90
11772;DHT22;12556;55.748;13.194;2023-02-04T13:15:50;1.00;99.90
11772;DHT22;12556;55.748;13.194;2023-02-04T13:18:17;0.90;99.90
11772;DHT22;12556;55.748;13.194;2023-02-04T13:20:44;0.80;99.90
11772;DHT22;12556;55.748;13.194;2023-02-04T13:23:11;0.80;99.90
11772;DHT22;12556;55.748;13.194;2023-02-04T13:25:38;0.70;99.90
11772;DHT22;12556;55.748;13.194;2023-02-04T13:28:07;0.70;99.90
11772;DHT22;12556;55.748;13.194;2023-02-04T13:30:34;0.70;99.90
11772;DHT22;12556;55.748;13.194;2023-02-04T13:33:01;0.70;99.90
11772;DHT22;12556;55.748;13.194;2023-02-04T13:35:28;0.60;99.90
11772;DHT22;12556;55.748;13.194;2023-02-04T13:37:54;0.60;99.90
11772;DHT22;12556;55.748;13.194;2023-02-04T13:40:21;0.50;99.90
11772;DHT22;12556;55.748;13.194;2023-02-04T13:42:48;0.50;99.90
11772;DHT22;12556;55.748;13.194;2023-02-04T13:45:16;0.50;99.90
11772;DHT22;12556;55.748;13.194;2023-02-04T13:47:44;0.40;99.90
11772;DHT22;12556;55.748;13.194;2023-02-04T13:50:12;0.30;99.90
11772;DHT22;12556;55.748;13.194;2023-02-04T13:52:39;0.30;99.90
11772;DHT22;12556;55.748;13.194;2023-02-04T13:55:06;0.30;99.90
11772;DHT22;12556;55.748;13.194;2023-02-04T13:57:33;0.20;99.90
11772;DHT22;12556;55.748;13.194;2023-02-04T14:00:02;0.10;99.90
11772;DHT22;12556;55.748;13.194;2023-02-04T14:02:31;0.10;99.90
11772;DHT22;12556;55.748;13.194;2023-02-04T14:04:58;0.00;99.90
11772;DHT22;12556;55.748;13.194;2023-02-04T14:07:25;0.10;99.90
11772;DHT22;12556;55.748;13.194;2023-02-04T14:09:52;0.00;99.90
11772;DHT22;12556;55.748;13.194;2023-02-04T14:12:18;0.00;99.90
11772;DHT22;12556;55.748;13.194;2023-02-04T14:14:45;0.00;99.90
11772;DHT22;12556;55.748;13.194;2023-02-04T14:17:12;0.00;99.90
11772;DHT22;12556;55.748;13.194;2023-02-04T14:19:40;0.00;99.90
11772;DHT22;12556;55.748;13.194;2023-02-04T14:22:07;0.00;99.90
11772;DHT22;12556;55.748;13.194;2023-02-04T14:24:35;-0.10;99.90
11772;DHT22;12556;55.748;13.194;2023-02-04T14:27:03;-0.10;99.90
11772;DHT22;12556;55.748;13.194;2023-02-04T14:29:32;-0.10;99.90
11772;DHT22;12556;55.748;13.194;2023-02-04T14:31:59;-0.20;99.90
11772;DHT22;12556;55.748;13.194;2023-02-04T14:34:26;0.70;99.90
11772;DHT22;12556;55.748;13.194;2023-02-04T14:36:54;-0.20;99.90
11772;DHT22;12556;55.748;13.194;2023-02-04T14:39:21;-0.20;99.90
11772;DHT22;12556;55.748;13.194;2023-02-04T14:41:48;-0.30;99.90
11772;DHT22;12556;55.748;13.194;2023-02-04T14:44:15;-0.30;99.90
11772;DHT22;12556;55.748;13.194;2023-02-04T14:46:45;-0.30;99.90
11772;DHT22;12556;55.748;13.194;2023-02-04T14:49:13;-0.30;99.90
11772;DHT22;12556;55.748;13.194;2023-02-04T14:51:40;-0.40;99.90
11772;DHT22;12556;55.748;13.194;2023-02-04T14:54:09;-0.40;99.90
11772;DHT22;12556;55.748;13.194;2023-02-04T14:56:36;-0.40;99.90
11772;DHT22;12556;55.748;13.194;2023-02-04T14:59:03;-0.40;99.90
11772;DHT22;12556;55.748;13.194;2023-02-04T15:01:30;-0.40;99.90
11772;DHT22;12556;55.748;13.194;2023-02-04T15:03:57;-0.50;99.90
11772;DHT22;12556;55.748;13.194;2023-02-04T15:06:24;-0.50;99.90
11772;DHT22;12556;55.748;13.194;2023-02-04T15:08:51;-0.60;99.90
11772;DHT22;12556;55.748;13.194;2023-02-04T15:11:19;-0.60;99.90
11772;DHT22;12556;55.748;13.194;2023-02-04T15:13:46;-0.60;99.90
11772;DHT22;12556;55.748;13.194;2023-02-04T15:16:13;-0.70;99.90
11772;DHT22;12556;55.748;13.194;2023-02-04T15:18:40;-0.70;99.90
11772;DHT22;12556;55.748;13.194;2023-02-04T15:21:07;-0.80;99.90
11772;DHT22;12556;55.748;13.194;2023-02-04T15:23:34;-0.80;99.90
11772;DHT22;12556;55.748;13.194;2023-02-04T15:26:01;-0.80;99.90